Time;durP1;ratioP1;P1;durP2;ratioP2;P2;SDS_P1;SDS_P2;PMS_P1;PMS_P2;Temp;Humidity;BMP_temperature;BMP_pressure;BME280_temperature;BME280_humidity;BME280_pressure;Samples;Min_cycle;Max_cycle;Signal;HPM_P1;HPM_P2
2021/11/09 00:02:16;;;;;;;6.63;6.53;;;;;;;;;;4987839;28;20043;-53
2021/11/09 00:04:48;;;;;;;8.93;8.65;;;;;;;;;;4987415;28;20050;-52
2021/11/09 00:09:58;;;;;;;6.38;6.38;;;;;;;;;;4986209;28;20038;-51
2021/11/09 00:12:27;;;;;;;6.13;5.97;;;;;;;;;;4986735;28;20042;-54
2021/11/09 00:14:58;;;;;;;3.65;3.55;;;;;;;;;;4978571;28;20047;-53
2021/11/09 00:17:24;;;;;;;28.35;20.05;;;;;;;;;;4984250;28;20125;-53
2021/11/09 00:19:52;;;;;;;6.82;6.53;;;;;;;;;;4987752;28;20085;-53
2021/11/09 00:22:19;;;;;;;6.65;6.55;;;;;;;;;;4986487;28;20093;-53
2021/11/09 00:24:46;;;;;;;2.42;2.33;;;;;;;;;;4987661;28;20092;-54
2021/11/09 00:27:12;;;;;;;8.70;8.50;;;;;;;;;;4988940;28;20050;-53
2021/11/09 00:29:39;;;;;;;5.85;5.75;;;;;;;;;;4989316;28;20566;-53
2021/11/09 00:32:07;;;;;;;4.10;4.00;;;;;;;;;;4980382;28;20043;-53
2021/11/09 00:34:34;;;;;;;3.90;3.90;;;;;;;;;;4988659;28;20446;-53
2021/11/09 00:37:00;;;;;;;3.35;3.35;;;;;;;;;;4980823;28;20074;-54
2021/11/09 00:39:27;;;;;;;5.72;5.63;;;;;;;;;;4992144;28;20742;-53
2021/11/09 00:41:54;;;;;;;7.20;6.70;;;;;;;;;;4988802;28;20034;-53
2021/11/09 00:44:20;;;;;;;2.53;2.53;;;;;;;;;;4990265;28;20066;-53
2021/11/09 00:46:47;;;;;;;5.13;5.03;;;;;;;;;;4992033;28;20041;-51
2021/11/09 00:49:14;;;;;;;3.45;3.45;;;;;;;;;;4988629;28;20057;-53
2021/11/09 00:51:41;;;;;;;2.70;2.58;;;;;;;;;;4992278;28;20092;-53
2021/11/09 00:54:07;;;;;;;4.60;4.60;;;;;;;;;;4987722;28;20038;-50
2021/11/09 00:56:34;;;;;;;4.45;4.45;;;;;;;;;;4990382;28;20652;-49
2021/11/09 00:59:01;;;;;;;4.85;4.75;;;;;;;;;;4990983;28;20050;-51
2021/11/09 01:01:27;;;;;;;4.05;3.83;;;;;;;;;;4990018;28;20038;-53
2021/11/09 01:03:55;;;;;;;1.63;1.63;;;;;;;;;;4975429;28;20039;-52
2021/11/09 01:06:21;;;;;;;2.28;2.28;;;;;;;;;;4984472;28;20066;-53
2021/11/09 01:08:48;;;;;;;1.65;1.58;;;;;;;;;;4986823;28;20101;-52
2021/11/09 01:11:15;;;;;;;1.88;1.80;;;;;;;;;;4991431;28;20077;-52
2021/11/09 01:13:42;;;;;;;2.90;2.90;;;;;;;;;;4988037;28;20043;-52
2021/11/09 01:16:08;;;;;;;4.00;4.00;;;;;;;;;;4988285;28;20049;-52
2021/11/09 01:18:38;;;;;;;5.00;5.00;;;;;;;;;;4988587;28;20490;-53
2021/11/09 01:21:05;;;;;;;6.20;6.10;;;;;;;;;;4990036;28;20038;-53
2021/11/09 01:23:32;;;;;;;5.90;5.90;;;;;;;;;;4990936;28;20042;-53
2021/11/09 01:26:00;;;;;;;6.13;5.85;;;;;;;;;;4989336;28;20039;-53
2021/11/09 01:28:28;;;;;;;5.40;5.22;;;;;;;;;;4991644;28;20054;-52
2021/11/09 01:30:55;;;;;;;6.13;5.90;;;;;;;;;;4989277;28;20092;-53
2021/11/09 01:33:22;;;;;;;5.05;4.95;;;;;;;;;;4984515;28;20069;-52
2021/11/09 01:35:48;;;;;;;4.75;4.65;;;;;;;;;;4989238;28;20450;-52
2021/11/09 01:38:15;;;;;;;5.70;5.70;;;;;;;;;;4987800;28;20121;-53
2021/11/09 01:40:42;;;;;;;7.55;7.13;;;;;;;;;;4977414;28;20034;-52
2021/11/09 01:43:09;;;;;;;6.60;6.50;;;;;;;;;;4983228;28;20042;-52
2021/11/09 01:45:35;;;;;;;6.18;6.07;;;;;;;;;;4987798;28;20050;-53
2021/11/09 01:48:04;;;;;;;5.68;5.55;;;;;;;;;;4987466;28;20054;-53
2021/11/09 01:50:33;;;;;;;4.40;4.15;;;;;;;;;;4983950;28;20049;-53
2021/11/09 01:53:00;;;;;;;3.33;3.33;;;;;;;;;;4988447;28;20105;-52
2021/11/09 01:55:27;;;;;;;3.25;3.15;;;;;;;;;;4990184;28;20405;-52
2021/11/09 01:57:55;;;;;;;2.55;2.55;;;;;;;;;;4987028;28;20053;-53
2021/11/09 02:00:27;;;;;;;3.63;3.53;;;;;;;;;;4991163;28;20042;-53
2021/11/09 02:02:54;;;;;;;5.40;5.40;;;;;;;;;;4988503;28;20129;-53
2021/11/09 02:05:21;;;;;;;5.95;5.85;;;;;;;;;;4989574;28;20066;-53
2021/11/09 02:07:50;;;;;;;4.65;4.65;;;;;;;;;;4989080;28;20054;-52
2021/11/09 02:10:18;;;;;;;5.20;5.20;;;;;;;;;;4989139;28;20122;-51
2021/11/09 02:12:44;;;;;;;5.45;5.30;;;;;;;;;;4990562;28;20037;-53
2021/11/09 02:15:12;;;;;;;6.00;5.55;;;;;;;;;;4987472;28;20035;-50
2021/11/09 02:17:40;;;;;;;5.00;4.80;;;;;;;;;;4989152;28;20034;-53
2021/11/09 02:20:08;;;;;;;4.88;4.88;;;;;;;;;;4984108;28;20047;-51
2021/11/09 02:22:35;;;;;;;5.88;5.88;;;;;;;;;;4987871;28;20380;-52
2021/11/09 02:25:03;;;;;;;4.85;4.75;;;;;;;;;;4973056;28;20371;-52
2021/11/09 02:27:30;;;;;;;3.58;3.58;;;;;;;;;;4988817;28;20080;-53
2021/11/09 02:29:57;;;;;;;4.82;4.72;;;;;;;;;;4989636;28;20100;-53
2021/11/09 02:32:24;;;;;;;5.43;4.97;;;;;;;;;;4989883;28;20050;-52
2021/11/09 02:34:51;;;;;;;5.70;5.60;;;;;;;;;;4987571;28;20660;-53
2021/11/09 02:37:18;;;;;;;4.78;4.78;;;;;;;;;;4976317;28;20035;-52
2021/11/09 02:39:45;;;;;;;6.20;6.20;;;;;;;;;;4989273;28;20038;-52
2021/11/09 02:42:14;;;;;;;4.80;4.78;;;;;;;;;;4988148;28;20031;-52
2021/11/09 02:45:21;;;;;;;4.88;4.78;;;;;;;;;;4989777;28;20043;-53
2021/11/09 02:47:57;;;;;;;5.10;4.80;;;;;;;;;;4985092;28;20557;-52
2021/11/09 02:50:30;;;;;;;5.35;5.15;;;;;;;;;;4977550;28;20518;-52
2021/11/09 02:53:04;;;;;;;5.15;5.05;;;;;;;;;;4987176;28;20054;-52
2021/11/09 02:55:37;;;;;;;4.80;4.45;;;;;;;;;;4984875;28;20065;-52
2021/11/09 03:00:38;;;;;;;1.98;1.40;;;;;;;;;;4977454;28;20182;-52
2021/11/09 03:03:41;;;;;;;3.53;3.38;;;;;;;;;;4983360;28;20129;-52
2021/11/09 03:09:05;;;;;;;6.10;6.00;;;;;;;;;;4975334;28;20050;-52
2021/11/09 03:11:29;;;;;;;3.45;3.35;;;;;;;;;;4983730;28;20096;-52
2021/11/09 03:13:57;;;;;;;5.45;5.35;;;;;;;;;;4986168;28;20042;-52
2021/11/09 03:16:24;;;;;;;6.20;6.00;;;;;;;;;;4987420;28;20445;-52
2021/11/09 03:46:36;;;;;;;5.70;5.35;;;;;;;;;;4986387;28;20047;-52
2021/11/09 03:49:05;;;;;;;4.88;4.68;;;;;;;;;;4988762;28;20463;-51
2021/11/09 03:51:32;;;;;;;3.75;3.65;;;;;;;;;;4986848;28;20065;-52
2021/11/09 03:54:01;;;;;;;4.93;4.82;;;;;;;;;;4988058;28;20039;-52
2021/11/09 03:56:41;;;;;;;3.08;3.08;;;;;;;;;;4988843;28;20053;-52
2021/11/09 03:59:14;;;;;;;3.65;3.58;;;;;;;;;;4986824;28;20077;-53
2021/11/09 04:04:44;;;;;;;2.33;2.10;;;;;;;;;;4992382;28;20049;-52
2021/11/09 04:14:50;;;;;;;2.25;2.22;;;;;;;;;;4991227;28;20038;-52
2021/11/09 04:39:25;;;;;;;6.30;5.90;;;;;;;;;;4989790;28;20046;-52
2021/11/09 05:08:43;;;;;;;4.43;4.43;;;;;;;;;;4947708;29;20051;-52
2021/11/09 05:11:10;;;;;;;4.30;4.18;;;;;;;;;;4948879;29;20051;-51
2021/11/09 05:13:37;;;;;;;4.30;4.30;;;;;;;;;;4949248;28;20051;-52
2021/11/09 05:16:03;;;;;;;5.30;5.10;;;;;;;;;;4947048;29;20039;-52
2021/11/09 05:18:30;;;;;;;4.15;3.92;;;;;;;;;;4947292;29;20058;-51
2021/11/09 05:20:56;;;;;;;1.38;1.38;;;;;;;;;;4949822;29;20044;-51
2021/11/09 05:23:23;;;;;;;1.50;1.50;;;;;;;;;;4949077;29;20078;-51
2021/11/09 05:25:50;;;;;;;5.03;4.93;;;;;;;;;;4950095;29;20063;-49
2021/11/09 05:28:17;;;;;;;4.22;4.07;;;;;;;;;;4948393;29;20094;-51
2021/11/09 05:30:48;;;;;;;1.40;1.40;;;;;;;;;;4956664;28;20497;-48
2021/11/09 05:33:15;;;;;;;5.45;5.35;;;;;;;;;;4990883;28;20046;-51
2021/11/09 05:35:41;;;;;;;6.43;6.32;;;;;;;;;;4989979;28;20050;-51
2021/11/09 05:38:09;;;;;;;5.65;5.45;;;;;;;;;;4983037;28;20101;-51
2021/11/09 05:40:39;;;;;;;7.15;6.70;;;;;;;;;;4988063;28;20096;-50
2021/11/09 05:43:06;;;;;;;6.90;6.80;;;;;;;;;;4991238;28;20043;-51
2021/11/09 05:45:32;;;;;;;7.30;7.07;;;;;;;;;;4989994;28;20066;-52
2021/11/09 05:47:59;;;;;;;8.52;8.43;;;;;;;;;;4989064;28;20379;-51
2021/11/09 05:50:27;;;;;;;9.73;9.43;;;;;;;;;;4991457;28;20093;-52
2021/11/09 05:52:58;;;;;;;7.32;7.22;;;;;;;;;;4988550;28;20788;-52
2021/11/09 05:55:25;;;;;;;7.90;7.60;;;;;;;;;;4977816;28;20050;-51
2021/11/09 05:57:51;;;;;;;4.65;4.65;;;;;;;;;;4990934;28;20100;-52
2021/11/09 06:00:18;;;;;;;2.47;2.38;;;;;;;;;;4989410;28;20063;-52
2021/11/09 06:02:44;;;;;;;2.80;2.80;;;;;;;;;;4988546;28;20466;-52
2021/11/09 06:05:11;;;;;;;8.68;8.57;;;;;;;;;;4990019;28;20093;-52
2021/11/09 06:07:38;;;;;;;5.03;5.03;;;;;;;;;;4989023;28;20082;-52
2021/11/09 06:10:05;;;;;;;7.88;7.78;;;;;;;;;;4990056;28;20092;-52
2021/11/09 06:12:32;;;;;;;6.60;6.50;;;;;;;;;;4987903;28;20054;-50
2021/11/09 06:14:59;;;;;;;6.88;6.57;;;;;;;;;;4972864;28;20046;-52
2021/11/09 06:17:26;;;;;;;5.10;5.10;;;;;;;;;;4988624;28;20066;-51
2021/11/09 06:19:52;;;;;;;8.60;8.27;;;;;;;;;;4987098;28;20057;-51
2021/11/09 06:22:19;;;;;;;4.10;4.00;;;;;;;;;;4987104;28;20039;-49
2021/11/09 06:24:46;;;;;;;5.30;5.20;;;;;;;;;;4985064;28;20410;-45
2021/11/09 06:27:13;;;;;;;5.30;5.20;;;;;;;;;;4975641;28;20066;-45
2021/11/09 06:29:39;;;;;;;4.25;4.05;;;;;;;;;;4988292;28;20049;-44
2021/11/09 06:32:06;;;;;;;4.20;4.10;;;;;;;;;;4987593;28;20101;-45
2021/11/09 06:34:33;;;;;;;1.92;1.20;;;;;;;;;;4990596;28;20042;-45
2021/11/09 06:36:59;;;;;;;3.67;3.47;;;;;;;;;;4984512;28;20046;-44
2021/11/09 06:39:27;;;;;;;2.28;2.05;;;;;;;;;;4987638;28;20045;-45
2021/11/09 06:41:54;;;;;;;1.33;1.20;;;;;;;;;;4988618;28;20058;-45
2021/11/09 06:44:21;;;;;;;3.58;3.38;;;;;;;;;;4988015;28;20050;-45
2021/11/09 06:46:47;;;;;;;1.35;1.35;;;;;;;;;;4990433;28;20050;-44
2021/11/09 06:49:14;;;;;;;2.53;2.17;;;;;;;;;;4982690;28;20504;-44
2021/11/09 06:51:41;;;;;;;3.35;1.33;;;;;;;;;;4987739;28;20050;-44
2021/11/09 06:54:07;;;;;;;0.90;0.90;;;;;;;;;;4989816;28;20092;-46
2021/11/09 06:56:35;;;;;;;1.35;0.90;;;;;;;;;;4987359;28;20056;-46
2021/11/09 06:59:02;;;;;;;1.88;1.00;;;;;;;;;;4980320;28;20050;-45
2021/11/09 07:01:30;;;;;;;0.93;0.93;;;;;;;;;;4986240;28;20035;-44
2021/11/09 07:03:57;;;;;;;1.10;1.10;;;;;;;;;;4988697;28;20622;-46
2021/11/09 07:06:24;;;;;;;1.30;1.20;;;;;;;;;;4989821;28;20046;-45
2021/11/09 07:08:52;;;;;;;1.67;1.10;;;;;;;;;;4983044;28;20051;-45
2021/11/09 07:11:19;;;;;;;1.75;1.33;;;;;;;;;;4988344;28;20085;-44
2021/11/09 07:13:46;;;;;;;1.20;1.20;;;;;;;;;;4987151;28;20031;-44
2021/11/09 07:16:14;;;;;;;2.55;2.17;;;;;;;;;;4986880;28;20059;-45
2021/11/09 07:18:41;;;;;;;1.25;1.25;;;;;;;;;;4986471;28;20039;-45
2021/11/09 07:21:08;;;;;;;1.63;1.30;;;;;;;;;;4987247;28;20690;-44
2021/11/09 07:23:35;;;;;;;2.15;2.05;;;;;;;;;;4988181;28;20065;-44
2021/11/09 07:26:02;;;;;;;1.65;1.20;;;;;;;;;;4985851;28;20047;-44
2021/11/09 07:28:28;;;;;;;1.17;1.17;;;;;;;;;;4977114;28;20034;-45
2021/11/09 07:31:04;;;;;;;4.78;1.20;;;;;;;;;;4989635;28;20448;-45
2021/11/09 07:33:32;;;;;;;1.40;1.38;;;;;;;;;;4985562;28;20418;-44
2021/11/09 07:35:59;;;;;;;1.30;1.20;;;;;;;;;;4987343;28;20125;-45
2021/11/09 07:38:25;;;;;;;1.55;1.50;;;;;;;;;;4993380;28;20074;-44
2021/11/09 07:40:52;;;;;;;1.40;1.30;;;;;;;;;;4992322;28;20034;-44
2021/11/09 07:43:19;;;;;;;3.30;3.05;;;;;;;;;;4992985;28;20046;-44
2021/11/09 07:45:46;;;;;;;2.25;2.15;;;;;;;;;;4989762;28;20454;-44
2021/11/09 07:48:13;;;;;;;2.47;1.90;;;;;;;;;;4990699;28;20046;-45
2021/11/09 07:50:40;;;;;;;1.20;1.20;;;;;;;;;;4982684;28;20097;-45
2021/11/09 07:53:13;;;;;;;2.25;1.10;;;;;;;;;;4984235;28;20046;-45
2021/11/09 07:55:44;;;;;;;1.10;1.10;;;;;;;;;;4992332;28;20051;-44
2021/11/09 07:58:16;;;;;;;1.13;1.13;;;;;;;;;;4986442;28;20077;-44
2021/11/09 08:00:47;;;;;;;2.08;1.92;;;;;;;;;;4981654;28;20116;-45
2021/11/09 08:03:21;;;;;;;2.35;2.35;;;;;;;;;;4993634;28;21058;-45
2021/11/09 08:11:20;;;;;;;1.33;1.20;;;;;;;;;;4987663;28;20055;-45
2021/11/09 08:13:47;;;;;;;1.25;1.15;;;;;;;;;;4989591;28;20069;-44
2021/11/09 08:16:14;;;;;;;1.45;1.38;;;;;;;;;;4991975;28;20101;-44
2021/11/09 08:18:41;;;;;;;2.45;1.63;;;;;;;;;;4991115;28;20129;-44
2021/11/09 08:21:07;;;;;;;1.02;1.02;;;;;;;;;;4989858;28;20125;-44
2021/11/09 08:23:34;;;;;;;1.13;1.13;;;;;;;;;;4988838;28;20042;-44
2021/11/09 08:26:01;;;;;;;1.85;1.00;;;;;;;;;;5000655;28;20537;-45
2021/11/09 08:28:30;;;;;;;1.65;1.50;;;;;;;;;;4989113;28;20113;-44
2021/11/09 08:31:03;;;;;;;1.00;1.00;;;;;;;;;;4992594;28;20383;-45
2021/11/09 08:33:30;;;;;;;1.20;1.10;;;;;;;;;;4989337;28;20081;-44
2021/11/09 08:36:01;;;;;;;1.95;1.42;;;;;;;;;;4992772;28;20038;-45
2021/11/09 08:38:28;;;;;;;2.78;1.10;;;;;;;;;;4991711;28;20046;-45
2021/11/09 08:40:54;;;;;;;1.95;1.80;;;;;;;;;;4990148;28;20078;-45
2021/11/09 08:43:25;;;;;;;2.90;1.05;;;;;;;;;;4992242;28;20089;-46
2021/11/09 08:45:57;;;;;;;2.90;2.70;;;;;;;;;;4989393;28;20038;-46
2021/11/09 08:48:34;;;;;;;1.30;1.20;;;;;;;;;;4989945;28;20118;-46
2021/11/09 08:51:01;;;;;;;1.70;1.70;;;;;;;;;;4982990;28;20050;-45
2021/11/09 08:53:32;;;;;;;2.95;2.75;;;;;;;;;;4983982;28;20046;-45
2021/11/09 09:06:33;;;;;;;0.90;0.90;;;;;;;;;;4989252;28;20101;-45
2021/11/09 09:09:01;;;;;;;1.00;1.00;;;;;;;;;;4989410;28;20048;-46
2021/11/09 09:11:28;;;;;;;0.90;0.90;;;;;;;;;;4991810;28;20043;-46
2021/11/09 09:13:55;;;;;;;3.30;1.00;;;;;;;;;;4990281;28;20109;-44
2021/11/09 09:16:22;;;;;;;0.85;0.85;;;;;;;;;;4991546;28;20049;-45
2021/11/09 09:18:49;;;;;;;0.90;0.90;;;;;;;;;;5003713;28;20054;-45
2021/11/09 09:21:23;;;;;;;1.27;1.27;;;;;;;;;;4990188;28;20038;-45
2021/11/09 09:23:54;;;;;;;0.80;0.80;;;;;;;;;;4992020;28;20058;-46
2021/11/09 09:31:41;;;;;;;1.00;1.00;;;;;;;;;;4991092;28;20046;-46
2021/11/09 09:55:55;;;;;;;2.25;0.90;;;;;;;;;;4988038;28;20399;-49
2021/11/09 09:58:22;;;;;;;1.67;0.80;;;;;;;;;;4982691;28;20092;-47
2021/11/09 10:00:49;;;;;;;0.85;0.80;;;;;;;;;;4989717;28;20046;-51
2021/11/09 10:03:16;;;;;;;1.00;0.90;;;;;;;;;;4987062;28;20126;-45
2021/11/09 10:05:43;;;;;;;3.05;1.00;;;;;;;;;;4988262;28;20088;-45
2021/11/09 10:08:13;;;;;;;1.50;0.90;;;;;;;;;;4988570;28;20096;-45
2021/11/09 10:10:40;;;;;;;1.15;0.90;;;;;;;;;;4983018;28;20042;-45
2021/11/09 10:13:08;;;;;;;0.80;0.80;;;;;;;;;;4981827;28;20051;-45
2021/11/09 10:15:37;;;;;;;0.90;0.90;;;;;;;;;;4989180;28;20034;-46
2021/11/09 10:18:05;;;;;;;2.03;1.38;;;;;;;;;;4986860;28;20125;-45
2021/11/09 10:20:51;;;;;;;1.00;1.00;;;;;;;;;;4990819;28;20042;-44
2021/11/09 10:23:22;;;;;;;0.80;0.80;;;;;;;;;;4988874;28;20043;-45
2021/11/09 10:25:50;;;;;;;1.70;1.60;;;;;;;;;;4988276;28;20077;-46
2021/11/09 10:28:18;;;;;;;0.90;0.90;;;;;;;;;;4989439;28;20062;-45
2021/11/09 10:30:47;;;;;;;0.80;0.80;;;;;;;;;;4986108;28;20050;-45
2021/11/09 10:33:16;;;;;;;0.80;0.80;;;;;;;;;;4989545;28;20069;-45
2021/11/09 10:35:43;;;;;;;0.80;0.80;;;;;;;;;;4989504;28;20049;-45
2021/11/09 10:38:10;;;;;;;0.80;0.80;;;;;;;;;;4987422;28;20559;-45
2021/11/09 10:40:46;;;;;;;1.10;1.10;;;;;;;;;;4985625;28;20062;-45
2021/11/09 10:43:14;;;;;;;0.82;0.82;;;;;;;;;;4987018;28;20050;-45
2021/11/09 10:45:41;;;;;;;0.82;0.82;;;;;;;;;;4989072;28;20104;-45
2021/11/09 10:48:10;;;;;;;0.88;0.88;;;;;;;;;;4989272;28;20042;-45
2021/11/09 10:50:38;;;;;;;0.70;0.70;;;;;;;;;;4988359;28;20046;-46
2021/11/09 10:53:08;;;;;;;1.25;0.80;;;;;;;;;;4989508;28;20046;-45
2021/11/09 10:56:11;;;;;;;0.80;0.80;;;;;;;;;;4987605;28;20435;-45
2021/11/09 10:59:18;;;;;;;0.75;0.75;;;;;;;;;;4988155;28;20540;-45
2021/11/09 11:04:31;;;;;;;0.70;0.70;;;;;;;;;;4996363;28;20077;-45
2021/11/09 11:07:03;;;;;;;0.70;0.70;;;;;;;;;;4992545;28;20041;-46
2021/11/09 11:09:29;;;;;;;0.70;0.70;;;;;;;;;;4989059;28;20054;-45
2021/11/09 11:12:06;;;;;;;0.75;0.75;;;;;;;;;;4987076;28;20096;-46
2021/11/09 11:14:34;;;;;;;2.38;0.70;;;;;;;;;;4986354;28;20360;-45
2021/11/09 11:17:06;;;;;;;0.70;0.70;;;;;;;;;;4986215;28;20042;-46
2021/11/09 11:19:33;;;;;;;0.60;0.60;;;;;;;;;;4983401;28;20493;-45
2021/11/09 11:22:00;;;;;;;0.70;0.70;;;;;;;;;;4981837;28;20406;-46
2021/11/09 11:24:27;;;;;;;0.70;0.70;;;;;;;;;;4988161;28;20034;-46
2021/11/09 11:26:55;;;;;;;0.70;0.70;;;;;;;;;;4985419;28;20558;-45
2021/11/09 11:29:24;;;;;;;0.70;0.70;;;;;;;;;;4989962;28;20089;-46
2021/11/09 11:31:51;;;;;;;0.70;0.70;;;;;;;;;;4984106;28;20137;-45
2021/11/09 11:34:20;;;;;;;0.70;0.70;;;;;;;;;;4979638;28;20035;-46
2021/11/09 11:36:47;;;;;;;0.80;0.80;;;;;;;;;;4986650;28;20038;-45
2021/11/09 11:39:14;;;;;;;0.73;0.73;;;;;;;;;;4979189;28;20085;-46
2021/11/09 11:41:43;;;;;;;0.80;0.80;;;;;;;;;;4986890;28;20066;-46
2021/11/09 11:44:11;;;;;;;0.80;0.80;;;;;;;;;;4984566;28;20073;-48
2021/11/09 11:46:38;;;;;;;0.73;0.73;;;;;;;;;;4987565;28;20395;-46
2021/11/09 11:49:13;;;;;;;0.80;0.80;;;;;;;;;;4988132;28;20104;-45
2021/11/09 11:51:46;;;;;;;0.70;0.70;;;;;;;;;;4983886;28;20070;-47
2021/11/09 11:54:15;;;;;;;1.95;0.73;;;;;;;;;;4977602;28;20474;-46
2021/11/09 11:56:45;;;;;;;0.85;0.85;;;;;;;;;;4982574;28;20043;-45
2021/11/09 11:59:23;;;;;;;0.80;0.80;;;;;;;;;;4974334;28;20126;-46
2021/11/09 12:01:55;;;;;;;1.00;1.00;;;;;;;;;;5002669;28;20046;-48
2021/11/09 12:04:40;;;;;;;1.20;1.20;;;;;;;;;;4988362;28;20532;-49
2021/11/09 12:07:09;;;;;;;0.88;0.88;;;;;;;;;;4975371;28;20042;-46
2021/11/09 12:09:39;;;;;;;0.88;0.88;;;;;;;;;;4987589;28;20055;-45
2021/11/09 12:12:27;;;;;;;0.85;0.85;;;;;;;;;;4986811;28;20069;-47
2021/11/09 12:14:59;;;;;;;0.80;0.80;;;;;;;;;;4971950;28;20093;-47
2021/11/09 12:17:42;;;;;;;0.80;0.80;;;;;;;;;;4986818;28;20043;-46
2021/11/09 12:20:13;;;;;;;0.90;0.90;;;;;;;;;;4987766;28;20045;-45
2021/11/09 12:22:51;;;;;;;0.80;0.80;;;;;;;;;;4987786;28;20039;-47
2021/11/09 12:25:33;;;;;;;0.90;0.90;;;;;;;;;;4989187;28;20039;-48
2021/11/09 12:28:11;;;;;;;1.10;1.10;;;;;;;;;;4985262;28;20042;-45
2021/11/09 12:30:42;;;;;;;0.90;0.90;;;;;;;;;;4978163;28;20053;-45
2021/11/09 12:33:19;;;;;;;0.80;0.80;;;;;;;;;;4986645;28;20670;-47
2021/11/09 12:35:57;;;;;;;0.80;0.80;;;;;;;;;;4990318;28;20438;-49
2021/11/09 12:38:31;;;;;;;0.80;0.80;;;;;;;;;;4982438;28;20043;-44
2021/11/09 12:41:00;;;;;;;0.90;0.90;;;;;;;;;;4989290;28;20561;-44
2021/11/09 12:43:32;;;;;;;0.85;0.85;;;;;;;;;;4986890;28;20651;-43
2021/11/09 12:46:00;;;;;;;0.80;0.80;;;;;;;;;;4991378;28;20435;-44
2021/11/09 12:48:29;;;;;;;0.90;0.90;;;;;;;;;;4989604;28;20129;-43
2021/11/09 12:50:57;;;;;;;0.90;0.90;;;;;;;;;;4991858;28;20050;-45
2021/11/09 12:53:24;;;;;;;1.00;1.00;;;;;;;;;;4985707;28;20441;-44
2021/11/09 12:55:59;;;;;;;1.08;1.08;;;;;;;;;;4991194;28;20053;-45
2021/11/09 12:58:27;;;;;;;0.90;0.90;;;;;;;;;;4992114;28;20080;-43
2021/11/09 13:01:17;;;;;;;0.80;0.80;;;;;;;;;;4989225;28;20048;-44
2021/11/09 13:04:10;;;;;;;0.90;0.90;;;;;;;;;;4990157;28;20502;-44
2021/11/09 13:09:26;;;;;;;0.77;0.77;;;;;;;;;;4989547;28;20074;-43
2021/11/09 13:12:05;;;;;;;0.90;0.90;;;;;;;;;;4986037;28;20046;-43
2021/11/09 13:14:36;;;;;;;0.80;0.80;;;;;;;;;;4989701;28;20125;-43
2021/11/09 13:17:23;;;;;;;0.80;0.80;;;;;;;;;;4989738;28;20501;-42
2021/11/09 13:19:58;;;;;;;0.90;0.90;;;;;;;;;;4990413;28;20756;-44
2021/11/09 13:22:29;;;;;;;0.80;0.80;;;;;;;;;;4989792;28;20034;-43
2021/11/09 13:25:00;;;;;;;0.90;0.90;;;;;;;;;;4989107;28;20034;-44
2021/11/09 13:27:36;;;;;;;0.90;0.90;;;;;;;;;;4990248;28;20049;-43
2021/11/09 13:30:29;;;;;;;0.90;0.90;;;;;;;;;;4986402;28;21654;-44
2021/11/09 13:32:59;;;;;;;0.80;0.80;;;;;;;;;;4980571;28;20063;-44
2021/11/09 13:35:27;;;;;;;0.70;0.70;;;;;;;;;;4987004;28;20062;-43
2021/11/09 13:38:06;;;;;;;0.80;0.80;;;;;;;;;;4986940;28;20046;-43
2021/11/09 13:40:33;;;;;;;0.80;0.80;;;;;;;;;;4987813;28;20663;-43
2021/11/09 13:43:02;;;;;;;1.10;1.10;;;;;;;;;;4983051;28;20523;-43
2021/11/09 13:45:29;;;;;;;0.90;0.90;;;;;;;;;;4984258;28;20495;-43
2021/11/09 13:47:56;;;;;;;1.00;1.00;;;;;;;;;;4991244;28;20479;-43
2021/11/09 13:50:25;;;;;;;1.95;1.10;;;;;;;;;;4986325;28;20066;-43
2021/11/09 13:52:52;;;;;;;0.88;0.88;;;;;;;;;;4983444;28;20078;-46
2021/11/09 13:55:21;;;;;;;0.80;0.80;;;;;;;;;;4984507;28;20050;-46
2021/11/09 13:57:48;;;;;;;1.20;0.80;;;;;;;;;;4983370;28;20054;-45
2021/11/09 14:00:28;;;;;;;0.93;0.93;;;;;;;;;;4988066;28;20061;-45
2021/11/09 14:03:12;;;;;;;0.80;0.80;;;;;;;;;;4986456;28;20089;-45
2021/11/09 14:11:23;;;;;;;0.90;0.90;;;;;;;;;;4988593;28;20038;-45
2021/11/09 14:16:51;;;;;;;2.05;0.90;;;;;;;;;;4990060;28;20065;-45
2021/11/09 14:19:33;;;;;;;0.90;0.90;;;;;;;;;;4982438;28;20043;-46
2021/11/09 14:22:12;;;;;;;0.90;0.90;;;;;;;;;;4982181;28;20038;-45
2021/11/09 14:24:40;;;;;;;0.90;0.90;;;;;;;;;;4990080;28;20089;-44
2021/11/09 14:27:10;;;;;;;1.00;1.00;;;;;;;;;;4987470;28;20038;-46
2021/11/09 14:29:43;;;;;;;0.90;0.90;;;;;;;;;;4989023;28;20042;-45
2021/11/09 14:32:18;;;;;;;0.80;0.80;;;;;;;;;;4978447;28;20098;-46
2021/11/09 14:34:59;;;;;;;0.95;0.95;;;;;;;;;;4983986;28;20112;-46
2021/11/09 14:37:33;;;;;;;1.20;1.20;;;;;;;;;;4979887;28;20070;-47
2021/11/09 14:39:59;;;;;;;0.98;0.98;;;;;;;;;;4989666;28;20486;-46
2021/11/09 14:42:39;;;;;;;1.08;1.00;;;;;;;;;;4988899;28;20522;-46
2021/11/09 14:47:58;;;;;;;1.17;1.15;;;;;;;;;;4988189;28;20038;-45
2021/11/09 14:50:36;;;;;;;1.83;1.10;;;;;;;;;;4987401;28;20093;-46
2021/11/09 14:53:09;;;;;;;1.00;1.00;;;;;;;;;;4989791;28;20049;-45
2021/11/09 14:55:42;;;;;;;0.88;0.88;;;;;;;;;;4987383;28;20061;-46
2021/11/09 14:58:42;;;;;;;1.20;1.20;;;;;;;;;;4988853;28;20069;-47
2021/11/09 15:01:29;;;;;;;3.15;2.45;;;;;;;;;;4989081;28;20137;-46
2021/11/09 15:04:01;;;;;;;2.38;2.28;;;;;;;;;;4981450;28;20034;-49
2021/11/09 15:06:40;;;;;;;1.00;1.00;;;;;;;;;;4980398;28;20093;-45
2021/11/09 15:11:45;;;;;;;1.10;1.10;;;;;;;;;;4985513;28;20101;-45
2021/11/09 15:26:08;;;;;;;5.28;4.97;;;;;;;;;;4990020;28;20093;-45
2021/11/09 15:30:49;;;;;;;5.65;5.55;;;;;;;;;;4986198;28;20046;-46
2021/11/09 15:33:21;;;;;;;7.85;7.18;;;;;;;;;;4989798;28;20043;-45
2021/11/09 15:38:34;;;;;;;4.28;4.15;;;;;;;;;;4982801;28;20038;-45
2021/11/09 15:41:00;;;;;;;3.33;3.22;;;;;;;;;;4980212;28;20495;-45
2021/11/09 15:43:29;;;;;;;3.25;3.15;;;;;;;;;;4984117;28;20054;-45
2021/11/09 15:45:55;;;;;;;1.40;1.40;;;;;;;;;;4987454;28;20107;-46
2021/11/09 15:48:22;;;;;;;1.60;1.42;;;;;;;;;;4980154;28;20073;-45
2021/11/09 15:50:49;;;;;;;1.05;1.05;;;;;;;;;;4976831;28;20144;-44
2021/11/09 15:53:15;;;;;;;0.80;0.80;;;;;;;;;;4978944;28;20519;-45
2021/11/09 15:55:42;;;;;;;1.40;1.38;;;;;;;;;;4985820;28;20405;-45
2021/11/09 15:58:09;;;;;;;3.60;3.50;;;;;;;;;;4988204;28;20050;-44
2021/11/09 16:00:37;;;;;;;2.33;2.22;;;;;;;;;;4991734;28;20050;-46
2021/11/09 16:03:04;;;;;;;1.63;1.63;;;;;;;;;;4988603;28;20511;-46
2021/11/09 16:05:41;;;;;;;1.60;1.60;;;;;;;;;;4992314;28;20042;-44
2021/11/09 16:08:08;;;;;;;1.20;1.20;;;;;;;;;;4988986;28;20541;-45
2021/11/09 16:10:37;;;;;;;1.00;1.00;;;;;;;;;;4982194;28;20502;-44
2021/11/09 16:13:04;;;;;;;1.20;1.20;;;;;;;;;;4992862;28;20046;-44
2021/11/09 16:15:31;;;;;;;2.17;2.17;;;;;;;;;;4988932;28;20125;-45
2021/11/09 16:17:58;;;;;;;1.30;1.30;;;;;;;;;;4991084;28;20042;-45
2021/11/09 16:20:27;;;;;;;1.33;1.33;;;;;;;;;;4991697;28;20041;-44
2021/11/09 16:22:55;;;;;;;1.30;1.30;;;;;;;;;;4987808;28;20038;-45
2021/11/09 16:25:24;;;;;;;1.55;1.45;;;;;;;;;;4992263;28;20066;-46
2021/11/09 16:27:51;;;;;;;2.28;2.17;;;;;;;;;;5005639;28;20092;-44
2021/11/09 16:30:19;;;;;;;2.10;2.10;;;;;;;;;;4991144;28;20030;-44
2021/11/09 16:32:48;;;;;;;1.30;1.30;;;;;;;;;;4990776;28;20085;-44
2021/11/09 16:37:46;;;;;;;1.98;1.30;;;;;;;;;;4992048;28;20101;-44
2021/11/09 16:40:17;;;;;;;1.20;1.20;;;;;;;;;;4990044;28;20046;-45
2021/11/09 16:43:04;;;;;;;1.30;1.30;;;;;;;;;;4991390;28;20037;-45
2021/11/09 16:45:34;;;;;;;1.10;1.10;;;;;;;;;;4991754;28;20558;-44
2021/11/09 16:48:06;;;;;;;1.20;1.10;;;;;;;;;;4990370;28;20038;-44
2021/11/09 16:53:12;;;;;;;1.75;1.65;;;;;;;;;;4991735;28;20042;-45
2021/11/09 18:14:49;;;;;;;2.70;2.22;;;;;;;;;;4985213;28;20387;-46
2021/11/09 18:20:04;;;;;;;2.08;2.05;;;;;;;;;;4982944;28;20046;-45
2021/11/09 18:22:36;;;;;;;2.70;2.65;;;;;;;;;;4989398;28;20050;-45
2021/11/09 18:25:09;;;;;;;2.33;2.33;;;;;;;;;;4988067;28;20038;-46
2021/11/09 18:27:37;;;;;;;1.88;1.88;;;;;;;;;;4979787;28;20041;-44
2021/11/09 18:30:06;;;;;;;1.85;1.77;;;;;;;;;;4988299;28;20108;-45
2021/11/09 18:32:33;;;;;;;2.25;1.38;;;;;;;;;;4986885;28;20050;-46
2021/11/09 18:34:59;;;;;;;1.20;1.10;;;;;;;;;;4973946;28;20053;-45
2021/11/09 18:37:26;;;;;;;1.60;1.60;;;;;;;;;;4987566;28;20046;-45
2021/11/09 18:39:54;;;;;;;2.42;1.90;;;;;;;;;;4985052;28;20046;-46
2021/11/09 18:42:29;;;;;;;3.60;3.50;;;;;;;;;;4989105;28;20093;-45
2021/11/09 18:44:58;;;;;;;3.55;3.45;;;;;;;;;;4987684;28;20037;-48
2021/11/09 18:47:25;;;;;;;2.72;2.63;;;;;;;;;;4972947;28;20043;-45
2021/11/09 18:49:51;;;;;;;5.55;3.60;;;;;;;;;;4988273;28;20136;-45
2021/11/09 18:52:18;;;;;;;6.00;5.80;;;;;;;;;;4986278;28;20402;-45
2021/11/09 18:54:45;;;;;;;4.28;4.07;;;;;;;;;;4987179;28;20402;-44
2021/11/09 18:57:12;;;;;;;6.13;5.60;;;;;;;;;;4985280;28;20046;-45
2021/11/09 18:59:38;;;;;;;7.15;6.63;;;;;;;;;;4987696;28;20050;-45
2021/11/09 19:02:06;;;;;;;7.55;6.95;;;;;;;;;;4987720;28;21537;-42
2021/11/09 19:04:33;;;;;;;12.20;11.00;;;;;;;;;;4987537;28;20044;-41
2021/11/09 19:07:00;;;;;;;12.15;8.93;;;;;;;;;;4983587;28;20057;-41
2021/11/09 19:09:27;;;;;;;7.82;7.15;;;;;;;;;;4982813;28;20050;-41
2021/11/09 19:11:54;;;;;;;4.22;4.13;;;;;;;;;;4982460;28;20055;-41
2021/11/09 19:14:21;;;;;;;4.40;4.10;;;;;;;;;;4989678;28;20050;-41
2021/11/09 19:16:49;;;;;;;3.08;2.10;;;;;;;;;;4987949;28;20038;-41
2021/11/09 19:19:19;;;;;;;2.83;2.45;;;;;;;;;;4988777;28;20039;-42
2021/11/09 19:21:46;;;;;;;5.05;4.85;;;;;;;;;;4987079;28;20038;-41